Time;durP1;ratioP1;P1;durP2;ratioP2;P2;SDS_P1;SDS_P2;PMS_P1;PMS_P2;Temp;Humidity;BMP_temperature;BMP_pressure;BME280_temperature;BME280_humidity;BME280_pressure;Samples;Min_cycle;Max_cycle;Signal;HPM_P1;HPM_P2
2023/07/20 00:01:04;;;;;;;10.40;9.30;;;;;;;;;;5046472;28;20516;-76
2023/07/20 00:03:29;;;;;;;11.50;8.93;;;;;;;;;;5047279;28;20661;-77
2023/07/20 00:05:55;;;;;;;9.57;8.93;;;;;;;;;;5051194;28;20393;-76
2023/07/20 00:08:20;;;;;;;9.95;9.25;;;;;;;;;;5048318;28;20110;-77
2023/07/20 00:10:46;;;;;;;9.95;9.35;;;;;;;;;;5048251;28;20397;-77
2023/07/20 00:13:12;;;;;;;10.63;9.75;;;;;;;;;;5045572;28;20389;-76
2023/07/20 00:15:38;;;;;;;10.52;9.82;;;;;;;;;;5044522;28;20033;-75
2023/07/20 00:18:04;;;;;;;10.48;9.68;;;;;;;;;;5046354;28;20063;-76
2023/07/20 00:20:30;;;;;;;10.93;10.07;;;;;;;;;;5048200;28;20087;-76
2023/07/20 00:22:57;;;;;;;9.43;8.82;;;;;;;;;;5046183;28;20038;-76
2023/07/20 00:25:23;;;;;;;11.00;10.00;;;;;;;;;;5048780;28;20048;-76
2023/07/20 00:27:49;;;;;;;10.57;9.48;;;;;;;;;;5038394;28;20037;-76
2023/07/20 00:30:15;;;;;;;10.48;9.68;;;;;;;;;;5047208;28;20039;-75
2023/07/20 00:32:42;;;;;;;10.68;9.85;;;;;;;;;;5043954;28;20039;-76
2023/07/20 00:35:08;;;;;;;10.35;9.65;;;;;;;;;;5043360;28;20041;-76
2023/07/20 00:37:34;;;;;;;9.88;9.13;;;;;;;;;;5045235;28;20044;-76
2023/07/20 00:39:59;;;;;;;10.68;9.88;;;;;;;;;;5051733;28;20040;-76
2023/07/20 00:42:25;;;;;;;10.05;9.35;;;;;;;;;;5049087;28;20054;-76
2023/07/20 00:44:51;;;;;;;10.52;9.63;;;;;;;;;;5050940;28;20028;-76
2023/07/20 00:47:16;;;;;;;10.95;9.93;;;;;;;;;;5042740;28;20060;-76
2023/07/20 00:49:42;;;;;;;10.63;9.90;;;;;;;;;;5026347;28;20041;-76
2023/07/20 00:52:10;;;;;;;10.90;9.88;;;;;;;;;;5026538;28;20033;-76
2023/07/20 00:54:37;;;;;;;10.10;9.40;;;;;;;;;;5042983;28;20633;-76
2023/07/20 00:57:04;;;;;;;10.65;9.70;;;;;;;;;;5042869;28;20064;-76
2023/07/20 00:59:31;;;;;;;10.70;9.90;;;;;;;;;;5044586;28;20037;-76
2023/07/20 01:01:57;;;;;;;9.82;9.07;;;;;;;;;;5043368;28;20040;-76
2023/07/20 01:04:22;;;;;;;10.57;9.55;;;;;;;;;;5046252;28;20041;-77
2023/07/20 01:06:57;;;;;;;10.10;9.43;;;;;;;;;;5042816;28;20123;-76
2023/07/20 01:09:31;;;;;;;10.85;9.98;;;;;;;;;;5041933;28;20045;-76
2023/07/20 01:12:22;;;;;;;11.35;10.45;;;;;;;;;;5046375;28;20455;-76
2023/07/20 01:14:49;;;;;;;10.82;9.95;;;;;;;;;;5044622;28;20060;-76
2023/07/20 01:17:14;;;;;;;11.70;10.77;;;;;;;;;;5039627;28;20116;-76
2023/07/20 01:19:40;;;;;;;11.27;10.27;;;;;;;;;;5044166;28;20607;-76
2023/07/20 01:22:44;;;;;;;10.60;9.80;;;;;;;;;;5045513;28;20032;-77
2023/07/20 01:25:31;;;;;;;11.00;10.20;;;;;;;;;;5042442;28;20154;-76
2023/07/20 01:28:05;;;;;;;9.98;9.27;;;;;;;;;;5032256;28;20403;-76
2023/07/20 01:30:55;;;;;;;10.98;10.20;;;;;;;;;;5045712;28;20036;-76
2023/07/20 01:33:22;;;;;;;10.90;9.85;;;;;;;;;;5040259;28;20033;-76
2023/07/20 01:35:54;;;;;;;11.82;10.05;;;;;;;;;;5042922;28;20108;-76
2023/07/20 01:38:21;;;;;;;10.63;9.88;;;;;;;;;;5042770;28;20037;-76
2023/07/20 01:40:49;;;;;;;11.20;10.20;;;;;;;;;;5032043;28;20130;-76
2023/07/20 01:43:15;;;;;;;10.07;9.38;;;;;;;;;;5047860;28;20103;-76
2023/07/20 01:45:42;;;;;;;11.00;10.23;;;;;;;;;;5042962;28;20037;-76
2023/07/20 01:48:07;;;;;;;10.23;9.60;;;;;;;;;;5045584;28;20676;-76
2023/07/20 01:50:34;;;;;;;10.45;9.65;;;;;;;;;;5042782;28;20037;-76
2023/07/20 01:53:00;;;;;;;10.70;9.85;;;;;;;;;;5045170;28;20052;-76
2023/07/20 01:55:26;;;;;;;10.57;9.68;;;;;;;;;;5046015;28;20365;-76
2023/07/20 01:57:52;;;;;;;11.18;10.00;;;;;;;;;;5039971;28;20037;-77
2023/07/20 02:00:21;;;;;;;10.27;9.57;;;;;;;;;;5026394;28;20044;-76
2023/07/20 02:02:47;;;;;;;9.98;9.20;;;;;;;;;;5047136;28;20103;-76
2023/07/20 02:05:12;;;;;;;9.85;9.25;;;;;;;;;;5045844;28;20112;-76
2023/07/20 02:07:39;;;;;;;9.82;9.23;;;;;;;;;;5042464;28;20032;-76
2023/07/20 02:10:05;;;;;;;9.85;9.00;;;;;;;;;;5046255;28;20515;-76
2023/07/20 02:12:30;;;;;;;9.60;9.00;;;;;;;;;;5047283;28;20029;-76
2023/07/20 02:14:56;;;;;;;9.93;9.13;;;;;;;;;;5048409;28;20365;-76
2023/07/20 02:17:22;;;;;;;10.45;9.75;;;;;;;;;;5046354;28;20059;-76
2023/07/20 02:19:50;;;;;;;9.85;9.13;;;;;;;;;;5046485;28;20040;-76
2023/07/20 02:22:16;;;;;;;10.00;9.30;;;;;;;;;;5046356;28;20037;-76
2023/07/20 02:24:42;;;;;;;10.50;9.63;;;;;;;;;;5047694;28;20089;-76
2023/07/20 02:27:08;;;;;;;10.82;9.90;;;;;;;;;;5045469;28;20040;-76
2023/07/20 02:29:33;;;;;;;12.30;10.00;;;;;;;;;;5045675;28;20545;-76
2023/07/20 02:31:59;;;;;;;11.40;10.48;;;;;;;;;;5045251;28;20082;-76
2023/07/20 02:34:25;;;;;;;11.40;10.70;;;;;;;;;;5044603;28;20032;-77
2023/07/20 02:36:50;;;;;;;12.48;11.20;;;;;;;;;;5043726;28;20056;-76
2023/07/20 02:39:16;;;;;;;11.90;11.07;;;;;;;;;;5038974;28;20037;-76
2023/07/20 02:41:41;;;;;;;12.05;10.90;;;;;;;;;;5047480;28;20033;-76
2023/07/20 02:44:07;;;;;;;11.55;10.65;;;;;;;;;;5045935;28;20029;-76
2023/07/20 02:46:32;;;;;;;11.35;10.45;;;;;;;;;;5046715;28;20032;-76
2023/07/20 02:48:59;;;;;;;11.90;11.07;;;;;;;;;;5046358;28;20489;-76
2023/07/20 02:51:25;;;;;;;11.35;10.55;;;;;;;;;;5044903;28;20058;-76
2023/07/20 02:53:50;;;;;;;11.88;11.00;;;;;;;;;;5042924;28;20449;-76
2023/07/20 02:56:17;;;;;;;11.40;10.55;;;;;;;;;;5043698;28;20041;-76
2023/07/20 02:58:43;;;;;;;11.02;10.23;;;;;;;;;;5045246;28;20044;-76
2023/07/20 03:01:10;;;;;;;11.48;10.68;;;;;;;;;;5042186;28;20041;-76
2023/07/20 03:03:38;;;;;;;11.48;10.57;;;;;;;;;;5061781;28;20492;-76
2023/07/20 03:06:09;;;;;;;12.07;11.07;;;;;;;;;;5045355;28;20123;-76
2023/07/20 03:08:35;;;;;;;11.10;10.40;;;;;;;;;;5045230;28;20098;-77
2023/07/20 03:11:01;;;;;;;12.10;11.20;;;;;;;;;;5045445;28;20108;-76
2023/07/20 03:13:28;;;;;;;11.75;10.95;;;;;;;;;;5062768;28;20044;-76
2023/07/20 03:15:54;;;;;;;11.30;10.50;;;;;;;;;;5045528;28;20040;-76
2023/07/20 03:18:20;;;;;;;11.45;10.63;;;;;;;;;;5044357;28;20025;-76
2023/07/20 03:20:46;;;;;;;11.73;10.85;;;;;;;;;;5023099;28;20516;-77
2023/07/20 03:23:12;;;;;;;10.88;10.18;;;;;;;;;;5046088;28;20048;-75
2023/07/20 03:25:38;;;;;;;11.43;10.63;;;;;;;;;;5045571;28;20025;-74
2023/07/20 03:28:04;;;;;;;12.50;11.20;;;;;;;;;;5043623;28;20046;-74
2023/07/20 03:30:30;;;;;;;11.75;10.60;;;;;;;;;;5039543;28;20036;-74
2023/07/20 03:32:55;;;;;;;11.95;11.05;;;;;;;;;;5043441;28;20029;-75
2023/07/20 03:35:21;;;;;;;11.57;10.75;;;;;;;;;;5046023;28;20021;-74
2023/07/20 03:37:47;;;;;;;12.90;11.00;;;;;;;;;;5059234;28;20051;-74
2023/07/20 03:40:14;;;;;;;11.10;10.30;;;;;;;;;;5041722;28;20406;-75
2023/07/20 03:42:39;;;;;;;11.32;10.52;;;;;;;;;;5044175;28;20036;-74
2023/07/20 03:45:06;;;;;;;11.63;10.73;;;;;;;;;;5044843;28;20036;-74
2023/07/20 03:47:32;;;;;;;11.45;10.65;;;;;;;;;;5042767;28;20074;-75
2023/07/20 03:49:57;;;;;;;11.90;10.95;;;;;;;;;;5042998;28;20107;-75
2023/07/20 03:52:23;;;;;;;11.35;10.52;;;;;;;;;;5044548;28;20044;-75
2023/07/20 03:54:51;;;;;;;11.52;10.60;;;;;;;;;;5043918;28;20033;-74
2023/07/20 03:57:17;;;;;;;11.77;10.77;;;;;;;;;;5044425;28;20039;-74
2023/07/20 03:59:46;;;;;;;11.50;10.50;;;;;;;;;;5045748;28;20115;-75
2023/07/20 04:02:11;;;;;;;11.30;10.50;;;;;;;;;;5040105;28;20389;-74
2023/07/20 04:04:37;;;;;;;11.18;10.20;;;;;;;;;;5041643;28;20029;-75
2023/07/20 04:07:03;;;;;;;11.05;10.05;;;;;;;;;;5042412;28;20033;-75
2023/07/20 04:09:28;;;;;;;11.77;10.50;;;;;;;;;;5042627;28;20029;-74
2023/07/20 04:11:54;;;;;;;11.30;10.30;;;;;;;;;;5043936;28;20033;-75
2023/07/20 04:14:20;;;;;;;11.05;10.10;;;;;;;;;;5043648;28;20028;-74
2023/07/20 04:16:49;;;;;;;11.90;10.48;;;;;;;;;;5043182;28;20033;-75
2023/07/20 04:19:14;;;;;;;11.85;10.95;;;;;;;;;;5043964;28;20034;-74
2023/07/20 04:21:41;;;;;;;11.68;10.60;;;;;;;;;;5045272;28;20090;-74
2023/07/20 04:24:07;;;;;;;11.18;10.07;;;;;;;;;;5043998;28;20055;-75
2023/07/20 04:26:33;;;;;;;11.60;10.20;;;;;;;;;;5041899;28;20037;-74
2023/07/20 04:29:01;;;;;;;11.40;10.60;;;;;;;;;;5027570;28;20393;-74
2023/07/20 04:31:34;;;;;;;11.60;10.52;;;;;;;;;;5044718;28;20613;-74
2023/07/20 04:33:59;;;;;;;11.30;10.35;;;;;;;;;;5027557;28;20512;-75
2023/07/20 04:36:25;;;;;;;11.20;10.13;;;;;;;;;;5028203;28;20373;-75
2023/07/20 04:38:53;;;;;;;14.05;10.88;;;;;;;;;;5058913;28;20043;-75
2023/07/20 04:41:20;;;;;;;11.20;10.40;;;;;;;;;;5009353;28;20613;-75
2023/07/20 04:43:47;;;;;;;11.55;10.43;;;;;;;;;;5044073;28;20032;-75
2023/07/20 04:46:18;;;;;;;11.73;10.77;;;;;;;;;;5041903;28;20033;-75
2023/07/20 04:48:44;;;;;;;11.32;10.50;;;;;;;;;;5043270;28;20049;-75
2023/07/20 04:51:11;;;;;;;12.10;11.10;;;;;;;;;;5042212;28;20507;-74
2023/07/20 04:53:37;;;;;;;11.68;10.50;;;;;;;;;;5042834;28;20043;-75
2023/07/20 04:56:03;;;;;;;11.77;10.88;;;;;;;;;;5045168;28;20037;-75
2023/07/20 04:58:29;;;;;;;12.10;11.10;;;;;;;;;;5043351;28;20037;-76
2023/07/20 05:00:55;;;;;;;11.57;10.57;;;;;;;;;;5027497;28;20124;-77
2023/07/20 05:03:21;;;;;;;11.73;10.73;;;;;;;;;;5041825;28;20060;-77
2023/07/20 05:05:48;;;;;;;11.48;10.57;;;;;;;;;;5043825;28;20052;-77
2023/07/20 05:08:14;;;;;;;11.85;10.93;;;;;;;;;;5046902;28;20044;-76
2023/07/20 05:10:39;;;;;;;11.40;10.50;;;;;;;;;;5043231;28;20059;-76
2023/07/20 05:13:05;;;;;;;11.43;10.52;;;;;;;;;;5043683;28;20029;-77
2023/07/20 05:15:33;;;;;;;12.02;10.43;;;;;;;;;;5043836;28;20039;-77
2023/07/20 05:17:59;;;;;;;11.77;10.63;;;;;;;;;;5043928;28;20504;-77
2023/07/20 05:20:25;;;;;;;11.52;10.63;;;;;;;;;;5042237;28;20448;-77
2023/07/20 05:22:50;;;;;;;11.13;10.32;;;;;;;;;;5043826;28;20036;-77
2023/07/20 05:25:18;;;;;;;10.88;10.18;;;;;;;;;;5043449;28;20036;-77
2023/07/20 05:27:45;;;;;;;11.52;10.63;;;;;;;;;;5044067;28;20033;-77
2023/07/20 05:30:11;;;;;;;11.50;10.50;;;;;;;;;;5044715;28;20029;-76
2023/07/20 05:32:37;;;;;;;11.73;10.68;;;;;;;;;;5045051;28;20117;-76
2023/07/20 05:35:02;;;;;;;11.55;10.65;;;;;;;;;;5047328;28;20033;-76
2023/07/20 05:37:28;;;;;;;11.52;10.60;;;;;;;;;;5041908;28;20422;-76
2023/07/20 05:39:54;;;;;;;11.77;10.88;;;;;;;;;;5044730;28;20530;-76
2023/07/20 05:42:19;;;;;;;11.80;10.43;;;;;;;;;;5044316;28;20045;-76
2023/07/20 05:44:47;;;;;;;10.82;10.02;;;;;;;;;;5046683;28;20079;-76
2023/07/20 05:47:12;;;;;;;11.07;10.18;;;;;;;;;;5045753;28;20048;-76
2023/07/20 05:49:38;;;;;;;12.55;10.75;;;;;;;;;;5048260;28;20037;-76
2023/07/20 05:52:04;;;;;;;11.45;10.40;;;;;;;;;;5048588;28;20033;-76
2023/07/20 05:54:29;;;;;;;12.63;10.57;;;;;;;;;;5045503;28;20052;-76
2023/07/20 05:56:55;;;;;;;11.68;10.68;;;;;;;;;;5065075;28;20056;-77
2023/07/20 05:59:20;;;;;;;11.00;10.23;;;;;;;;;;5050471;28;20114;-77
2023/07/20 06:01:49;;;;;;;10.95;10.15;;;;;;;;;;5048069;28;20029;-77
2023/07/20 06:04:15;;;;;;;11.18;10.20;;;;;;;;;;5045339;28;20659;-77
2023/07/20 06:06:42;;;;;;;11.07;10.15;;;;;;;;;;5046429;28;20040;-77
2023/07/20 06:09:11;;;;;;;11.73;10.40;;;;;;;;;;5047583;28;20095;-77
2023/07/20 06:11:38;;;;;;;11.13;10.20;;;;;;;;;;5047180;28;20028;-77
2023/07/20 06:14:04;;;;;;;11.38;10.55;;;;;;;;;;5045335;28;20449;-77
2023/07/20 06:16:30;;;;;;;11.20;10.25;;;;;;;;;;5047651;28;20500;-77
2023/07/20 06:18:56;;;;;;;12.45;10.25;;;;;;;;;;5047475;28;20055;-77
2023/07/20 06:21:21;;;;;;;11.45;10.65;;;;;;;;;;5047353;28;20112;-77
2023/07/20 06:23:47;;;;;;;11.05;10.18;;;;;;;;;;5045962;28;20024;-77
2023/07/20 06:26:13;;;;;;;11.07;10.20;;;;;;;;;;5047877;28;20075;-77
2023/07/20 06:28:38;;;;;;;11.60;10.48;;;;;;;;;;5047235;28;20455;-76
2023/07/20 06:31:04;;;;;;;10.90;10.02;;;;;;;;;;5044943;28;20623;-77
2023/07/20 06:33:29;;;;;;;11.15;10.02;;;;;;;;;;5047348;28;20033;-77
2023/07/20 06:35:56;;;;;;;11.05;10.25;;;;;;;;;;5047364;28;20515;-76
2023/07/20 06:38:23;;;;;;;11.60;10.43;;;;;;;;;;5047024;28;20306;-76
2023/07/20 06:40:49;;;;;;;10.80;10.10;;;;;;;;;;5045351;28;20040;-76
2023/07/20 06:43:15;;;;;;;11.30;10.40;;;;;;;;;;5049413;28;20037;-76
2023/07/20 06:45:42;;;;;;;11.18;10.23;;;;;;;;;;5047657;28;20037;-76
2023/07/20 06:48:07;;;;;;;10.63;9.88;;;;;;;;;;5043985;28;20036;-77
2023/07/20 06:50:33;;;;;;;11.07;10.18;;;;;;;;;;5045600;28;20089;-76
2023/07/20 06:52:59;;;;;;;10.63;9.82;;;;;;;;;;5049816;28;20029;-76
2023/07/20 06:55:26;;;;;;;10.60;9.80;;;;;;;;;;5044100;28;20082;-76
2023/07/20 06:57:52;;;;;;;10.32;9.57;;;;;;;;;;5045217;28;20389;-76
2023/07/20 07:00:18;;;;;;;10.98;10.07;;;;;;;;;;5045583;28;20063;-77
2023/07/20 07:02:43;;;;;;;10.90;10.02;;;;;;;;;;5046327;28;20303;-76
2023/07/20 07:05:09;;;;;;;11.13;10.27;;;;;;;;;;5045552;28;20439;-76
2023/07/20 07:07:35;;;;;;;10.80;9.90;;;;;;;;;;5046617;28;20090;-76
2023/07/20 07:10:03;;;;;;;10.73;9.90;;;;;;;;;;5046794;28;20037;-76
2023/07/20 07:12:29;;;;;;;11.30;9.83;;;;;;;;;;5045225;28;20048;-76
2023/07/20 07:14:54;;;;;;;10.30;9.60;;;;;;;;;;5046288;28;20036;-76
2023/07/20 07:17:20;;;;;;;9.30;8.68;;;;;;;;;;5047314;28;20396;-77
2023/07/20 07:19:45;;;;;;;10.18;9.25;;;;;;;;;;5045453;28;20560;-77
2023/07/20 07:22:11;;;;;;;10.40;9.50;;;;;;;;;;5047567;28;20552;-76
2023/07/20 07:24:37;;;;;;;10.43;9.60;;;;;;;;;;5045085;28;20440;-76
2023/07/20 07:27:03;;;;;;;11.13;10.23;;;;;;;;;;5048279;28;20029;-76
2023/07/20 07:29:29;;;;;;;12.40;9.20;;;;;;;;;;5046791;28;20068;-76
2023/07/20 07:31:55;;;;;;;10.10;9.32;;;;;;;;;;5045538;28;20064;-76
2023/07/20 07:34:20;;;;;;;10.02;9.25;;;;;;;;;;5046453;28;20664;-77
2023/07/20 07:36:47;;;;;;;10.98;10.05;;;;;;;;;;5046076;28;20043;-77
2023/07/20 07:39:12;;;;;;;10.85;9.77;;;;;;;;;;5045375;28;20064;-77
2023/07/20 07:41:38;;;;;;;11.30;10.18;;;;;;;;;;5045681;28;20206;-77
2023/07/20 07:44:04;;;;;;;10.85;10.05;;;;;;;;;;5046040;28;21101;-76
2023/07/20 07:46:29;;;;;;;10.23;9.52;;;;;;;;;;5045689;28;20052;-77
2023/07/20 07:48:55;;;;;;;11.23;10.25;;;;;;;;;;5044494;28;20036;-76
2023/07/20 07:51:20;;;;;;;10.32;9.63;;;;;;;;;;5043955;28;20447;-76
2023/07/20 07:53:46;;;;;;;10.27;9.45;;;;;;;;;;5046093;28;20029;-76
2023/07/20 07:56:12;;;;;;;9.57;8.75;;;;;;;;;;5045456;28;20048;-77
2023/07/20 07:58:38;;;;;;;10.15;9.45;;;;;;;;;;5043087;28;20240;-77
2023/07/20 08:01:04;;;;;;;11.20;9.27;;;;;;;;;;5044236;28;20484;-77
2023/07/20 08:03:30;;;;;;;10.40;9.38;;;;;;;;;;5045623;28;20063;-77
2023/07/20 08:05:55;;;;;;;11.10;10.20;;;;;;;;;;5045959;28;20481;-77
2023/07/20 08:08:22;;;;;;;10.32;9.68;;;;;;;;;;5045459;28;20068;-76
2023/07/20 08:10:48;;;;;;;10.57;9.77;;;;;;;;;;5046165;28;20294;-76
2023/07/20 08:13:14;;;;;;;9.55;8.85;;;;;;;;;;5044405;28;20420;-77
2023/07/20 08:15:48;;;;;;;8.93;8.30;;;;;;;;;;5044279;28;20032;-77
2023/07/20 08:18:14;;;;;;;9.57;8.77;;;;;;;;;;5045856;28;20412;-76
2023/07/20 08:20:39;;;;;;;8.93;8.23;;;;;;;;;;5045158;28;20060;-77
2023/07/20 08:23:05;;;;;;;11.93;9.70;;;;;;;;;;5045190;28;20203;-76
2023/07/20 08:25:30;;;;;;;10.32;9.52;;;;;;;;;;5043774;28;20044;-77
2023/07/20 08:27:56;;;;;;;12.02;11.02;;;;;;;;;;5045911;28;20055;-77
2023/07/20 08:30:23;;;;;;;10.10;9.20;;;;;;;;;;5044611;28;20658;-77
2023/07/20 08:32:49;;;;;;;9.77;8.98;;;;;;;;;;5044832;28;20341;-77
2023/07/20 08:35:15;;;;;;;10.20;9.40;;;;;;;;;;5045805;28;20082;-77
2023/07/20 08:37:41;;;;;;;10.35;9.52;;;;;;;;;;5048283;28;20169;-77
2023/07/20 08:40:08;;;;;;;9.90;8.65;;;;;;;;;;5045909;28;20484;-77
2023/07/20 08:42:35;;;;;;;9.98;9.18;;;;;;;;;;5044465;28;20730;-76
2023/07/20 08:45:07;;;;;;;9.73;9.02;;;;;;;;;;5045255;28;20032;-76
2023/07/20 08:47:33;;;;;;;9.70;8.90;;;;;;;;;;5045111;28;20033;-76
2023/07/20 08:49:59;;;;;;;9.65;8.55;;;;;;;;;;5027885;28;20044;-77
2023/07/20 08:52:25;;;;;;;9.10;8.50;;;;;;;;;;5044433;28;20507;-76
2023/07/20 08:54:53;;;;;;;11.10;8.32;;;;;;;;;;5045532;28;20029;-77
2023/07/20 08:57:21;;;;;;;9.23;8.32;;;;;;;;;;5044639;28;20036;-76
2023/07/20 08:59:47;;;;;;;9.23;8.30;;;;;;;;;;5040650;28;20447;-77
2023/07/20 09:02:17;;;;;;;8.90;8.30;;;;;;;;;;5048114;28;20060;-77
2023/07/20 09:04:44;;;;;;;8.65;8.10;;;;;;;;;;5044715;28;20400;-77
2023/07/20 09:07:10;;;;;;;9.35;8.65;;;;;;;;;;5041960;28;20754;-77
2023/07/20 09:09:40;;;;;;;10.15;9.32;;;;;;;;;;5043263;28;20037;-77
2023/07/20 09:12:13;;;;;;;11.23;9.48;;;;;;;;;;5039689;28;20594;-77
2023/07/20 09:14:39;;;;;;;11.40;10.25;;;;;;;;;;5043252;28;20528;-77
2023/07/20 09:17:04;;;;;;;9.85;8.95;;;;;;;;;;5045535;28;20226;-77
2023/07/20 09:19:30;;;;;;;9.63;8.82;;;;;;;;;;5049709;28;20037;-77
2023/07/20 09:21:56;;;;;;;10.20;9.18;;;;;;;;;;5050459;28;20420;-77
2023/07/20 09:24:22;;;;;;;8.73;7.93;;;;;;;;;;5048181;28;20053;-77
2023/07/20 09:26:48;;;;;;;9.43;8.52;;;;;;;;;;5049290;28;20039;-77
2023/07/20 09:29:17;;;;;;;9.38;8.77;;;;;;;;;;5029672;28;20053;-77
2023/07/20 09:31:57;;;;;;;9.35;8.63;;;;;;;;;;5048519;28;20025;-77
2023/07/20 09:34:23;;;;;;;9.20;8.60;;;;;;;;;;5048901;28;20056;-78
2023/07/20 09:36:48;;;;;;;9.18;8.50;;;;;;;;;;5050315;28;20040;-77
2023/07/20 09:39:14;;;;;;;8.63;7.93;;;;;;;;;;5047100;28;20118;-78
2023/07/20 09:41:43;;;;;;;8.77;7.95;;;;;;;;;;5049491;28;20056;-78
2023/07/20 09:44:10;;;;;;;8.70;7.90;;;;;;;;;;5049041;28;20036;-77
2023/07/20 09:46:46;;;;;;;8.68;7.88;;;;;;;;;;5047303;28;20037;-78
2023/07/20 09:49:12;;;;;;;9.63;8.95;;;;;;;;;;5045983;28;20044;-78
2023/07/20 09:51:39;;;;;;;9.75;8.75;;;;;;;;;;5052354;28;20112;-78
2023/07/20 09:54:05;;;;;;;9.75;8.90;;;;;;;;;;5053418;28;20106;-78
2023/07/20 09:56:32;;;;;;;8.95;8.15;;;;;;;;;;5032386;28;20098;-78
2023/07/20 09:58:59;;;;;;;9.75;9.05;;;;;;;;;;5048359;28;20044;-77
2023/07/20 10:01:27;;;;;;;9.20;8.40;;;;;;;;;;5048899;28;20492;-78
2023/07/20 10:03:55;;;;;;;9.30;8.33;;;;;;;;;;5048627;28;20102;-78
2023/07/20 10:06:24;;;;;;;9.00;8.30;;;;;;;;;;5049583;28;20037;-78
2023/07/20 10:08:52;;;;;;;;;;;;;;;;;;5045649;28;20380;-78
2023/07/20 10:11:18;;;;;;;9.63;8.93;;;;;;;;;;5049384;28;19913;-78
2023/07/20 10:13:46;;;;;;;9.70;8.82;;;;;;;;;;5049630;28;20450;-78
2023/07/20 10:16:21;;;;;;;9.05;8.45;;;;;;;;;;5044474;28;20045;-78
2023/07/20 10:18:54;;;;;;;9.45;8.60;;;;;;;;;;5048265;28;20049;-78
2023/07/20 10:21:22;;;;;;;8.95;8.05;;;;;;;;;;5031072;28;20049;-78
2023/07/20 10:23:49;;;;;;;9.63;8.00;;;;;;;;;;5052283;28;20045;-78
2023/07/20 10:26:15;;;;;;;9.10;8.35;;;;;;;;;;5046482;28;20071;-77
2023/07/20 10:28:41;;;;;;;8.85;8.30;;;;;;;;;;5048842;28;20064;-77
2023/07/20 10:31:09;;;;;;;9.38;8.45;;;;;;;;;;5049083;28;20033;-77
2023/07/20 10:33:37;;;;;;;9.23;8.57;;;;;;;;;;5046711;28;20473;-77
2023/07/20 10:36:07;;;;;;;8.50;7.90;;;;;;;;;;5047033;28;20033;-78
2023/07/20 10:38:45;;;;;;;8.35;7.75;;;;;;;;;;5048277;28;20033;-77
2023/07/20 10:41:20;;;;;;;7.60;7.10;;;;;;;;;;5039439;28;20033;-78
2023/07/20 10:43:46;;;;;;;7.93;7.22;;;;;;;;;;5046183;28;20086;-79
2023/07/20 10:46:13;;;;;;;7.93;7.32;;;;;;;;;;5049213;28;20037;-78
2023/07/20 10:49:02;;;;;;;7.85;7.25;;;;;;;;;;5049355;28;20029;-78
2023/07/20 10:51:28;;;;;;;7.78;7.22;;;;;;;;;;5044839;28;20041;-78
2023/07/20 10:53:58;;;;;;;8.07;7.47;;;;;;;;;;5045630;28;20039;-79
2023/07/20 10:56:31;;;;;;;8.68;7.80;;;;;;;;;;5047083;28;20400;-78
2023/07/20 10:59:00;;;;;;;7.85;7.25;;;;;;;;;;5048934;28;20040;-78
2023/07/20 11:01:33;;;;;;;8.27;7.68;;;;;;;;;;5045209;28;20452;-78
2023/07/20 11:04:03;;;;;;;9.18;8.07;;;;;;;;;;5048506;28;20082;-78
2023/07/20 11:06:28;;;;;;;8.00;7.30;;;;;;;;;;5051183;28;20045;-78
2023/07/20 11:09:10;;;;;;;8.85;8.15;;;;;;;;;;5033139;28;20064;-78
2023/07/20 11:11:38;;;;;;;8.80;8.07;;;;;;;;;;4977886;28;2009822;-78
2023/07/20 11:14:06;;;;;;;8.88;8.07;;;;;;;;;;5048950;28;20041;-78
2023/07/20 11:16:39;;;;;;;8.73;8.13;;;;;;;;;;5049581;28;20041;-78
2023/07/20 11:19:06;;;;;;;8.32;7.72;;;;;;;;;;5048625;28;20072;-78
2023/07/20 11:21:37;;;;;;;8.23;7.63;;;;;;;;;;5048142;28;20496;-79
2023/07/20 11:24:05;;;;;;;8.93;8.27;;;;;;;;;;5047697;28;20906;-78
2023/07/20 11:26:39;;;;;;;8.15;7.65;;;;;;;;;;5051648;28;20420;-78
2023/07/20 11:29:04;;;;;;;8.90;8.30;;;;;;;;;;5047510;28;20066;-79
2023/07/20 11:31:30;;;;;;;8.90;8.18;;;;;;;;;;5051140;28;20481;-78
2023/07/20 11:33:55;;;;;;;9.65;8.95;;;;;;;;;;5031696;28;20685;-78
2023/07/20 11:36:21;;;;;;;10.77;9.43;;;;;;;;;;5046708;28;20045;-78
2023/07/20 11:38:47;;;;;;;9.93;9.27;;;;;;;;;;5048730;28;20035;-78
2023/07/20 11:41:13;;;;;;;9.68;9.02;;;;;;;;;;5048678;28;20106;-78
2023/07/20 11:43:39;;;;;;;9.32;8.70;;;;;;;;;;5047489;28;20108;-78
2023/07/20 11:46:05;;;;;;;9.52;8.63;;;;;;;;;;5047030;28;20125;-78
2023/07/20 11:48:31;;;;;;;9.02;8.45;;;;;;;;;;5049982;28;20090;-78
2023/07/20 11:50:56;;;;;;;9.52;8.93;;;;;;;;;;5050658;28;20045;-78
2023/07/20 11:53:24;;;;;;;9.55;8.88;;;;;;;;;;5047748;28;20269;-78
2023/07/20 11:55:51;;;;;;;9.77;8.85;;;;;;;;;;5048240;28;20028;-78
2023/07/20 11:58:17;;;;;;;9.25;8.65;;;;;;;;;;5048997;28;20047;-78
2023/07/20 12:00:44;;;;;;;8.85;8.35;;;;;;;;;;5046938;28;20108;-78
2023/07/20 12:03:11;;;;;;;10.40;9.30;;;;;;;;;;5045493;28;20123;-78
2023/07/20 12:05:38;;;;;;;9.43;8.57;;;;;;;;;;5047421;28;20447;-78
2023/07/20 12:08:04;;;;;;;9.43;8.82;;;;;;;;;;5049375;28;20079;-78
2023/07/20 12:10:30;;;;;;;9.45;8.95;;;;;;;;;;5052722;28;20036;-78
2023/07/20 12:13:01;;;;;;;9.80;9.13;;;;;;;;;;5051063;28;20028;-78
2023/07/20 12:15:29;;;;;;;10.30;9.25;;;;;;;;;;5049462;28;20037;-78
2023/07/20 12:17:57;;;;;;;9.38;8.68;;;;;;;;;;5050633;28;20037;-78
2023/07/20 12:20:27;;;;;;;9.20;8.60;;;;;;;;;;5033599;28;20040;-78
2023/07/20 12:22:54;;;;;;;9.82;9.10;;;;;;;;;;5052042;28;20040;-78
2023/07/20 12:25:20;;;;;;;10.05;9.25;;;;;;;;;;5051094;28;20072;-78
2023/07/20 12:27:47;;;;;;;9.73;8.90;;;;;;;;;;5050936;28;20356;-78
2023/07/20 12:30:16;;;;;;;9.45;8.85;;;;;;;;;;5051018;28;20033;-79
2023/07/20 12:32:42;;;;;;;9.00;8.50;;;;;;;;;;5046353;28;20091;-79
2023/07/20 12:35:08;;;;;;;9.93;9.23;;;;;;;;;;5049428;28;20045;-79
2023/07/20 12:37:33;;;;;;;9.50;8.80;;;;;;;;;;5032203;28;20041;-79
2023/07/20 12:39:59;;;;;;;10.07;9.48;;;;;;;;;;5032950;28;20033;-79
2023/07/20 12:42:24;;;;;;;10.07;9.27;;;;;;;;;;5050865;28;20071;-79
2023/07/20 12:44:50;;;;;;;9.73;9.10;;;;;;;;;;5048032;28;20129;-79
2023/07/20 12:47:17;;;;;;;9.55;8.73;;;;;;;;;;5052602;28;20120;-79
2023/07/20 12:49:45;;;;;;;9.50;8.90;;;;;;;;;;5052212;28;20040;-79
2023/07/20 12:52:11;;;;;;;9.63;8.93;;;;;;;;;;5050705;28;20048;-79
2023/07/20 12:54:36;;;;;;;9.60;9.05;;;;;;;;;;5050943;28;20037;-80
2023/07/20 12:57:03;;;;;;;9.77;9.07;;;;;;;;;;5052167;28;20480;-79
2023/07/20 12:59:29;;;;;;;10.45;9.60;;;;;;;;;;5051188;28;20040;-79
2023/07/20 13:01:55;;;;;;;10.15;9.35;;;;;;;;;;5047595;28;20041;-79
2023/07/20 13:04:26;;;;;;;10.02;9.40;;;;;;;;;;5031637;28;20037;-79
2023/07/20 13:06:51;;;;;;;9.77;9.18;;;;;;;;;;5044824;28;20029;-79
2023/07/20 13:09:17;;;;;;;10.23;9.43;;;;;;;;;;5051033;28;20185;-79
2023/07/20 13:11:44;;;;;;;9.82;9.23;;;;;;;;;;5048771;28;20399;-79
2023/07/20 13:14:11;;;;;;;10.82;9.18;;;;;;;;;;5052056;28;20413;-79
2023/07/20 13:16:37;;;;;;;9.82;9.13;;;;;;;;;;5032703;28;20044;-79
2023/07/20 13:19:02;;;;;;;9.40;8.85;;;;;;;;;;5048612;28;20043;-79
2023/07/20 13:21:29;;;;;;;10.02;9.00;;;;;;;;;;5048138;28;20032;-79
2023/07/20 13:23:54;;;;;;;9.63;9.02;;;;;;;;;;5047287;28;20055;-79
2023/07/20 13:26:20;;;;;;;10.40;9.70;;;;;;;;;;5047996;28;20259;-79
2023/07/20 13:28:46;;;;;;;9.70;9.15;;;;;;;;;;5050449;28;20093;-79
2023/07/20 13:31:11;;;;;;;10.30;9.50;;;;;;;;;;5048506;28;20426;-79
2023/07/20 13:33:37;;;;;;;11.88;9.30;;;;;;;;;;5048725;28;20488;-79
2023/07/20 13:36:05;;;;;;;10.27;9.48;;;;;;;;;;5050897;28;20036;-79
2023/07/20 13:38:31;;;;;;;11.10;10.40;;;;;;;;;;5047042;28;20033;-79
2023/07/20 13:40:58;;;;;;;10.88;10.18;;;;;;;;;;5051631;28;20579;-79
2023/07/20 13:43:23;;;;;;;10.52;9.82;;;;;;;;;;5052384;28;20373;-79
2023/07/20 13:45:49;;;;;;;10.88;10.25;;;;;;;;;;5052153;28;20032;-79
2023/07/20 13:48:14;;;;;;;10.65;9.95;;;;;;;;;;5049859;28;20045;-79
2023/07/20 13:50:40;;;;;;;10.82;9.98;;;;;;;;;;5050987;28;20346;-79
2023/07/20 13:53:06;;;;;;;10.48;9.77;;;;;;;;;;5048976;28;20041;-80
2023/07/20 13:55:33;;;;;;;10.10;9.40;;;;;;;;;;5033155;28;20071;-79
2023/07/20 13:57:59;;;;;;;11.10;10.35;;;;;;;;;;5046797;28;20450;-80
2023/07/20 14:00:26;;;;;;;10.30;9.70;;;;;;;;;;5047258;28;20049;-80
2023/07/20 14:02:53;;;;;;;10.95;10.25;;;;;;;;;;5046712;28;20310;-80
2023/07/20 14:05:19;;;;;;;10.45;9.50;;;;;;;;;;5048787;28;20052;-80
2023/07/20 14:07:44;;;;;;;10.50;9.77;;;;;;;;;;5050353;28;20041;-80
2023/07/20 14:10:10;;;;;;;10.52;9.80;;;;;;;;;;5051664;28;20749;-80
2023/07/20 14:12:35;;;;;;;10.57;9.90;;;;;;;;;;5052523;28;20033;-80
2023/07/20 14:15:01;;;;;;;10.30;9.45;;;;;;;;;;5025317;28;20175;-80
2023/07/20 14:17:27;;;;;;;10.13;9.52;;;;;;;;;;5050636;28;20041;-79
2023/07/20 14:19:53;;;;;;;9.75;9.02;;;;;;;;;;5050939;28;20037;-79
2023/07/20 14:22:18;;;;;;;10.70;9.70;;;;;;;;;;5050319;28;20468;-79
2023/07/20 14:24:44;;;;;;;11.15;10.45;;;;;;;;;;5052288;28;20025;-80
2023/07/20 14:27:10;;;;;;;10.68;9.98;;;;;;;;;;5054022;28;20048;-80